sensor_id;sensor_type;location;lat;lon;timestamp;P1;durP1;ratioP1;P2;durP2;ratioP2
1106;SDS011;540;49.448;8.612;2022-07-24T00:01:09;7.25;;;5.40;;
1106;SDS011;540;49.448;8.612;2022-07-24T00:03:38;9.10;;;6.43;;
1106;SDS011;540;49.448;8.612;2022-07-24T00:06:06;6.35;;;5.75;;
1106;SDS011;540;49.448;8.612;2022-07-24T00:08:34;7.18;;;6.40;;
1106;SDS011;540;49.448;8.612;2022-07-24T00:11:02;8.30;;;6.05;;
1106;SDS011;540;49.448;8.612;2022-07-24T00:13:30;6.82;;;6.13;;
1106;SDS011;540;49.448;8.612;2022-07-24T00:15:58;10.38;;;5.88;;
1106;SDS011;540;49.448;8.612;2022-07-24T00:18:26;8.73;;;6.13;;
1106;SDS011;540;49.448;8.612;2022-07-24T00:20:55;7.90;;;5.32;;
1106;SDS011;540;49.448;8.612;2022-07-24T00:23:23;7.53;;;5.30;;
1106;SDS011;540;49.448;8.612;2022-07-24T00:25:51;7.40;;;5.10;;
1106;SDS011;540;49.448;8.612;2022-07-24T00:28:20;7.25;;;5.50;;
1106;SDS011;540;49.448;8.612;2022-07-24T00:30:48;6.30;;;5.00;;
1106;SDS011;540;49.448;8.612;2022-07-24T00:33:16;9.60;;;5.00;;
1106;SDS011;540;49.448;8.612;2022-07-24T00:35:44;7.75;;;5.18;;
1106;SDS011;540;49.448;8.612;2022-07-24T00:38:13;6.72;;;4.90;;
1106;SDS011;540;49.448;8.612;2022-07-24T00:40:41;7.03;;;4.57;;
1106;SDS011;540;49.448;8.612;2022-07-24T00:43:09;7.95;;;5.22;;
1106;SDS011;540;49.448;8.612;2022-07-24T00:45:37;6.88;;;5.28;;
1106;SDS011;540;49.448;8.612;2022-07-24T00:48:05;7.05;;;5.05;;
1106;SDS011;540;49.448;8.612;2022-07-24T00:50:34;6.57;;;5.18;;
1106;SDS011;540;49.448;8.612;2022-07-24T00:53:02;7.15;;;5.07;;
1106;SDS011;540;49.448;8.612;2022-07-24T00:55:32;6.43;;;5.35;;
1106;SDS011;540;49.448;8.612;2022-07-24T00:58:00;9.98;;;5.65;;
1106;SDS011;540;49.448;8.612;2022-07-24T01:00:28;8.60;;;6.13;;
1106;SDS011;540;49.448;8.612;2022-07-24T01:02:56;6.63;;;4.72;;
1106;SDS011;540;49.448;8.612;2022-07-24T01:05:24;6.90;;;4.82;;
1106;SDS011;540;49.448;8.612;2022-07-24T01:07:52;6.22;;;4.78;;
1106;SDS011;540;49.448;8.612;2022-07-24T01:10:20;6.53;;;5.10;;
1106;SDS011;540;49.448;8.612;2022-07-24T01:12:49;7.57;;;5.55;;
1106;SDS011;540;49.448;8.612;2022-07-24T01:15:17;7.53;;;5.00;;
1106;SDS011;540;49.448;8.612;2022-07-24T01:17:45;6.22;;;4.93;;
1106;SDS011;540;49.448;8.612;2022-07-24T01:20:13;6.78;;;4.82;;
1106;SDS011;540;49.448;8.612;2022-07-24T01:22:42;11.48;;;5.22;;
1106;SDS011;540;49.448;8.612;2022-07-24T01:25:10;5.60;;;4.72;;
1106;SDS011;540;49.448;8.612;2022-07-24T01:27:38;7.63;;;5.53;;
1106;SDS011;540;49.448;8.612;2022-07-24T01:30:06;5.20;;;4.70;;
1106;SDS011;540;49.448;8.612;2022-07-24T01:32:35;8.32;;;5.40;;
1106;SDS011;540;49.448;8.612;2022-07-24T01:35:03;7.88;;;5.05;;
1106;SDS011;540;49.448;8.612;2022-07-24T01:37:32;9.20;;;5.80;;
1106;SDS011;540;49.448;8.612;2022-07-24T01:40:02;8.60;;;5.47;;
1106;SDS011;540;49.448;8.612;2022-07-24T01:42:30;7.18;;;5.40;;
1106;SDS011;540;49.448;8.612;2022-07-24T01:44:58;8.10;;;5.20;;
1106;SDS011;540;49.448;8.612;2022-07-24T01:47:26;7.18;;;5.38;;
1106;SDS011;540;49.448;8.612;2022-07-24T01:49:53;7.03;;;5.10;;
1106;SDS011;540;49.448;8.612;2022-07-24T01:52:21;7.65;;;5.50;;
1106;SDS011;540;49.448;8.612;2022-07-24T01:54:51;9.77;;;5.75;;
1106;SDS011;540;49.448;8.612;2022-07-24T01:57:21;9.82;;;5.30;;
1106;SDS011;540;49.448;8.612;2022-07-24T01:59:49;9.40;;;5.93;;
1106;SDS011;540;49.448;8.612;2022-07-24T02:02:16;10.50;;;5.88;;
1106;SDS011;540;49.448;8.612;2022-07-24T02:04:44;6.65;;;5.28;;
1106;SDS011;540;49.448;8.612;2022-07-24T02:07:12;7.03;;;5.28;;
1106;SDS011;540;49.448;8.612;2022-07-24T02:09:40;7.88;;;5.20;;
1106;SDS011;540;49.448;8.612;2022-07-24T02:12:08;8.52;;;6.00;;
1106;SDS011;540;49.448;8.612;2022-07-24T02:14:37;6.85;;;5.43;;
1106;SDS011;540;49.448;8.612;2022-07-24T02:17:05;8.32;;;5.30;;
1106;SDS011;540;49.448;8.612;2022-07-24T02:19:33;9.95;;;5.72;;
1106;SDS011;540;49.448;8.612;2022-07-24T02:22:02;8.02;;;6.18;;
1106;SDS011;540;49.448;8.612;2022-07-24T02:24:30;7.80;;;6.07;;
1106;SDS011;540;49.448;8.612;2022-07-24T02:26:58;8.90;;;5.65;;
1106;SDS011;540;49.448;8.612;2022-07-24T02:29:28;10.48;;;6.25;;
1106;SDS011;540;49.448;8.612;2022-07-24T02:31:58;12.15;;;6.15;;
1106;SDS011;540;49.448;8.612;2022-07-24T02:34:26;11.45;;;5.90;;
1106;SDS011;540;49.448;8.612;2022-07-24T02:36:54;7.18;;;5.90;;
1106;SDS011;540;49.448;8.612;2022-07-24T02:39:22;9.88;;;5.80;;
1106;SDS011;540;49.448;8.612;2022-07-24T02:41:50;9.85;;;6.35;;
1106;SDS011;540;49.448;8.612;2022-07-24T02:44:17;7.97;;;5.95;;
1106;SDS011;540;49.448;8.612;2022-07-24T02:46:45;10.95;;;6.45;;
1106;SDS011;540;49.448;8.612;2022-07-24T02:49:14;9.32;;;5.95;;
1106;SDS011;540;49.448;8.612;2022-07-24T02:51:42;10.32;;;5.53;;
1106;SDS011;540;49.448;8.612;2022-07-24T02:54:10;7.47;;;5.95;;
1106;SDS011;540;49.448;8.612;2022-07-24T02:56:38;7.88;;;5.95;;
1106;SDS011;540;49.448;8.612;2022-07-24T02:59:06;10.30;;;6.60;;
1106;SDS011;540;49.448;8.612;2022-07-24T03:01:34;9.80;;;6.25;;
1106;SDS011;540;49.448;8.612;2022-07-24T03:04:02;8.93;;;5.95;;
1106;SDS011;540;49.448;8.612;2022-07-24T03:06:32;9.00;;;5.60;;
1106;SDS011;540;49.448;8.612;2022-07-24T03:09:01;8.10;;;5.50;;
1106;SDS011;540;49.448;8.612;2022-07-24T03:11:30;11.13;;;5.93;;
1106;SDS011;540;49.448;8.612;2022-07-24T03:13:58;7.00;;;5.50;;
1106;SDS011;540;49.448;8.612;2022-07-24T03:16:25;10.10;;;6.18;;
1106;SDS011;540;49.448;8.612;2022-07-24T03:18:53;6.93;;;5.30;;
1106;SDS011;540;49.448;8.612;2022-07-24T03:21:21;7.43;;;5.93;;
1106;SDS011;540;49.448;8.612;2022-07-24T03:24:10;7.47;;;5.60;;
1106;SDS011;540;49.448;8.612;2022-07-24T03:26:38;8.45;;;6.45;;
1106;SDS011;540;49.448;8.612;2022-07-24T03:29:06;10.40;;;6.45;;
1106;SDS011;540;49.448;8.612;2022-07-24T03:31:34;9.15;;;6.15;;
1106;SDS011;540;49.448;8.612;2022-07-24T03:34:02;8.77;;;6.55;;
1106;SDS011;540;49.448;8.612;2022-07-24T03:36:30;8.32;;;6.38;;
1106;SDS011;540;49.448;8.612;2022-07-24T03:38:58;10.25;;;7.68;;
1106;SDS011;540;49.448;8.612;2022-07-24T03:41:28;9.98;;;7.05;;
1106;SDS011;540;49.448;8.612;2022-07-24T03:43:56;8.15;;;6.43;;
1106;SDS011;540;49.448;8.612;2022-07-24T03:46:24;10.63;;;6.85;;
1106;SDS011;540;49.448;8.612;2022-07-24T03:48:54;9.73;;;7.20;;
1106;SDS011;540;49.448;8.612;2022-07-24T03:51:22;7.68;;;6.75;;
1106;SDS011;540;49.448;8.612;2022-07-24T03:53:51;9.10;;;6.32;;
1106;SDS011;540;49.448;8.612;2022-07-24T03:56:20;7.95;;;6.00;;
1106;SDS011;540;49.448;8.612;2022-07-24T03:58:52;8.73;;;6.13;;
1106;SDS011;540;49.448;8.612;2022-07-24T04:01:20;10.90;;;6.38;;
1106;SDS011;540;49.448;8.612;2022-07-24T04:03:48;9.20;;;6.55;;
1106;SDS011;540;49.448;8.612;2022-07-24T04:06:16;9.52;;;5.90;;
1106;SDS011;540;49.448;8.612;2022-07-24T04:08:44;9.18;;;6.75;;
1106;SDS011;540;49.448;8.612;2022-07-24T04:11:13;9.27;;;6.63;;
1106;SDS011;540;49.448;8.612;2022-07-24T04:13:41;9.68;;;6.40;;
1106;SDS011;540;49.448;8.612;2022-07-24T04:16:10;8.85;;;6.25;;
1106;SDS011;540;49.448;8.612;2022-07-24T04:18:38;7.53;;;5.63;;
1106;SDS011;540;49.448;8.612;2022-07-24T04:21:06;9.00;;;6.13;;
1106;SDS011;540;49.448;8.612;2022-07-24T04:23:34;9.20;;;6.30;;
1106;SDS011;540;49.448;8.612;2022-07-24T04:26:02;6.78;;;5.88;;
1106;SDS011;540;49.448;8.612;2022-07-24T04:28:30;7.85;;;6.38;;
1106;SDS011;540;49.448;8.612;2022-07-24T04:30:58;8.85;;;7.03;;
1106;SDS011;540;49.448;8.612;2022-07-24T04:33:27;9.38;;;6.68;;
1106;SDS011;540;49.448;8.612;2022-07-24T04:35:55;10.13;;;6.43;;
1106;SDS011;540;49.448;8.612;2022-07-24T04:38:23;9.43;;;6.25;;
1106;SDS011;540;49.448;8.612;2022-07-24T04:40:51;8.60;;;6.68;;
1106;SDS011;540;49.448;8.612;2022-07-24T04:43:19;11.02;;;6.20;;
1106;SDS011;540;49.448;8.612;2022-07-24T04:45:47;9.63;;;6.57;;
1106;SDS011;540;49.448;8.612;2022-07-24T04:48:15;11.95;;;6.25;;
1106;SDS011;540;49.448;8.612;2022-07-24T04:50:44;6.60;;;5.75;;
1106;SDS011;540;49.448;8.612;2022-07-24T04:53:12;10.40;;;6.40;;
1106;SDS011;540;49.448;8.612;2022-07-24T04:55:39;8.88;;;5.65;;
1106;SDS011;540;49.448;8.612;2022-07-24T04:58:07;11.30;;;6.13;;
1106;SDS011;540;49.448;8.612;2022-07-24T05:00:35;5.80;;;5.20;;
1106;SDS011;540;49.448;8.612;2022-07-24T05:03:03;11.63;;;6.00;;
1106;SDS011;540;49.448;8.612;2022-07-24T05:05:31;8.50;;;6.22;;
1106;SDS011;540;49.448;8.612;2022-07-24T05:08:00;8.10;;;6.80;;
1106;SDS011;540;49.448;8.612;2022-07-24T05:10:28;8.70;;;6.40;;
1106;SDS011;540;49.448;8.612;2022-07-24T05:12:56;9.32;;;6.50;;
1106;SDS011;540;49.448;8.612;2022-07-24T05:15:29;9.73;;;6.40;;
1106;SDS011;540;49.448;8.612;2022-07-24T05:17:57;9.40;;;6.15;;
1106;SDS011;540;49.448;8.612;2022-07-24T05:20:25;11.27;;;6.85;;
1106;SDS011;540;49.448;8.612;2022-07-24T05:22:53;6.72;;;6.00;;
1106;SDS011;540;49.448;8.612;2022-07-24T05:25:22;9.30;;;6.40;;
1106;SDS011;540;49.448;8.612;2022-07-24T05:27:50;9.77;;;6.25;;
1106;SDS011;540;49.448;8.612;2022-07-24T05:30:18;8.80;;;5.63;;
1106;SDS011;540;49.448;8.612;2022-07-24T05:32:46;7.43;;;6.13;;
1106;SDS011;540;49.448;8.612;2022-07-24T05:35:14;7.55;;;5.95;;
1106;SDS011;540;49.448;8.612;2022-07-24T05:37:54;9.98;;;6.00;;
1106;SDS011;540;49.448;8.612;2022-07-24T05:40:23;6.18;;;5.57;;
1106;SDS011;540;49.448;8.612;2022-07-24T05:42:51;7.47;;;5.68;;
1106;SDS011;540;49.448;8.612;2022-07-24T05:45:19;10.13;;;5.93;;
1106;SDS011;540;49.448;8.612;2022-07-24T05:47:47;7.72;;;6.15;;
1106;SDS011;540;49.448;8.612;2022-07-24T05:50:15;7.95;;;5.30;;
1106;SDS011;540;49.448;8.612;2022-07-24T05:52:43;10.57;;;6.15;;
1106;SDS011;540;49.448;8.612;2022-07-24T05:55:11;7.82;;;5.10;;
1106;SDS011;540;49.448;8.612;2022-07-24T05:57:43;9.10;;;6.22;;
1106;SDS011;540;49.448;8.612;2022-07-24T06:00:12;8.63;;;5.88;;
1106;SDS011;540;49.448;8.612;2022-07-24T06:02:43;8.27;;;6.00;;
1106;SDS011;540;49.448;8.612;2022-07-24T06:05:12;10.20;;;5.95;;
1106;SDS011;540;49.448;8.612;2022-07-24T06:07:40;8.93;;;5.90;;
1106;SDS011;540;49.448;8.612;2022-07-24T06:10:09;12.43;;;6.68;;
1106;SDS011;540;49.448;8.612;2022-07-24T06:12:40;9.32;;;6.30;;
1106;SDS011;540;49.448;8.612;2022-07-24T06:15:10;11.43;;;7.15;;
1106;SDS011;540;49.448;8.612;2022-07-24T06:17:38;10.55;;;6.40;;
1106;SDS011;540;49.448;8.612;2022-07-24T06:20:07;10.18;;;6.82;;
1106;SDS011;540;49.448;8.612;2022-07-24T06:22:38;8.73;;;6.47;;
1106;SDS011;540;49.448;8.612;2022-07-24T06:25:14;9.27;;;6.97;;
1106;SDS011;540;49.448;8.612;2022-07-24T06:27:42;10.25;;;7.32;;
1106;SDS011;540;49.448;8.612;2022-07-24T06:30:13;8.23;;;6.50;;
1106;SDS011;540;49.448;8.612;2022-07-24T06:32:41;8.80;;;6.07;;
1106;SDS011;540;49.448;8.612;2022-07-24T06:35:10;7.55;;;6.75;;
1106;SDS011;540;49.448;8.612;2022-07-24T06:37:38;8.70;;;6.53;;
1106;SDS011;540;49.448;8.612;2022-07-24T06:40:13;8.93;;;6.63;;
1106;SDS011;540;49.448;8.612;2022-07-24T06:42:41;11.18;;;6.85;;
1106;SDS011;540;49.448;8.612;2022-07-24T06:45:10;8.48;;;6.40;;
1106;SDS011;540;49.448;8.612;2022-07-24T06:47:39;12.40;;;6.85;;
1106;SDS011;540;49.448;8.612;2022-07-24T06:50:08;9.48;;;5.85;;
1106;SDS011;540;49.448;8.612;2022-07-24T06:52:36;8.63;;;6.35;;
1106;SDS011;540;49.448;8.612;2022-07-24T06:55:04;9.27;;;6.53;;
1106;SDS011;540;49.448;8.612;2022-07-24T06:57:34;9.68;;;6.90;;
1106;SDS011;540;49.448;8.612;2022-07-24T07:00:03;6.63;;;6.00;;
1106;SDS011;540;49.448;8.612;2022-07-24T07:02:33;7.72;;;6.15;;
1106;SDS011;540;49.448;8.612;2022-07-24T07:05:02;8.27;;;6.15;;
1106;SDS011;540;49.448;8.612;2022-07-24T07:07:31;8.25;;;6.45;;
1106;SDS011;540;49.448;8.612;2022-07-24T07:09:59;8.57;;;5.55;;
1106;SDS011;540;49.448;8.612;2022-07-24T07:12:26;9.75;;;6.10;;
1106;SDS011;540;49.448;8.612;2022-07-24T07:14:54;7.45;;;6.13;;
1106;SDS011;540;49.448;8.612;2022-07-24T07:17:24;7.35;;;5.63;;
1106;SDS011;540;49.448;8.612;2022-07-24T07:19:52;6.72;;;5.90;;
1106;SDS011;540;49.448;8.612;2022-07-24T07:22:21;10.52;;;5.50;;
1106;SDS011;540;49.448;8.612;2022-07-24T07:24:49;11.23;;;6.13;;
1106;SDS011;540;49.448;8.612;2022-07-24T07:27:17;9.25;;;5.78;;
1106;SDS011;540;49.448;8.612;2022-07-24T07:29:45;8.23;;;5.80;;
1106;SDS011;540;49.448;8.612;2022-07-24T07:32:13;7.40;;;5.32;;
1106;SDS011;540;49.448;8.612;2022-07-24T07:34:40;14.18;;;5.55;;
1106;SDS011;540;49.448;8.612;2022-07-24T07:37:09;8.13;;;5.90;;
1106;SDS011;540;49.448;8.612;2022-07-24T07:39:38;5.50;;;5.00;;
1106;SDS011;540;49.448;8.612;2022-07-24T07:42:06;7.40;;;5.43;;
1106;SDS011;540;49.448;8.612;2022-07-24T07:44:35;7.95;;;6.72;;
1106;SDS011;540;49.448;8.612;2022-07-24T07:47:04;8.60;;;5.43;;
1106;SDS011;540;49.448;8.612;2022-07-24T07:49:32;8.27;;;6.45;;
1106;SDS011;540;49.448;8.612;2022-07-24T07:52:00;5.28;;;4.78;;
1106;SDS011;540;49.448;8.612;2022-07-24T07:54:29;6.07;;;4.65;;
1106;SDS011;540;49.448;8.612;2022-07-24T07:56:58;4.90;;;4.40;;
1106;SDS011;540;49.448;8.612;2022-07-24T07:59:26;6.00;;;5.10;;
1106;SDS011;540;49.448;8.612;2022-07-24T08:01:54;7.60;;;6.20;;
1106;SDS011;540;49.448;8.612;2022-07-24T08:04:22;8.27;;;5.15;;
1106;SDS011;540;49.448;8.612;2022-07-24T08:06:50;5.82;;;4.93;;
1106;SDS011;540;49.448;8.612;2022-07-24T08:09:19;6.97;;;5.40;;
1106;SDS011;540;49.448;8.612;2022-07-24T08:11:47;6.57;;;5.05;;
1106;SDS011;540;49.448;8.612;2022-07-24T08:14:17;6.38;;;5.07;;
1106;SDS011;540;49.448;8.612;2022-07-24T08:16:45;6.85;;;6.13;;
1106;SDS011;540;49.448;8.612;2022-07-24T08:19:14;5.57;;;5.07;;
1106;SDS011;540;49.448;8.612;2022-07-24T08:21:42;7.13;;;5.40;;
1106;SDS011;540;49.448;8.612;2022-07-24T08:24:12;5.40;;;4.90;;
1106;SDS011;540;49.448;8.612;2022-07-24T08:26:39;5.75;;;5.25;;
1106;SDS011;540;49.448;8.612;2022-07-24T08:29:07;5.70;;;5.15;;
1106;SDS011;540;49.448;8.612;2022-07-24T08:31:36;5.40;;;4.90;;
1106;SDS011;540;49.448;8.612;2022-07-24T08:34:05;7.65;;;5.50;;
1106;SDS011;540;49.448;8.612;2022-07-24T08:36:33;6.00;;;5.30;;
1106;SDS011;540;49.448;8.612;2022-07-24T08:39:00;6.68;;;5.57;;
1106;SDS011;540;49.448;8.612;2022-07-24T08:41:35;5.47;;;4.97;;
1106;SDS011;540;49.448;8.612;2022-07-24T08:44:05;6.15;;;5.55;;
1106;SDS011;540;49.448;8.612;2022-07-24T08:46:34;8.38;;;5.38;;
1106;SDS011;540;49.448;8.612;2022-07-24T08:49:09;6.37;;;5.77;;
1106;SDS011;540;49.448;8.612;2022-07-24T08:51:39;7.43;;;5.70;;
1106;SDS011;540;49.448;8.612;2022-07-24T08:54:08;7.22;;;5.13;;
1106;SDS011;540;49.448;8.612;2022-07-24T08:56:37;8.13;;;5.68;;
1106;SDS011;540;49.448;8.612;2022-07-24T08:59:14;6.32;;;5.32;;
1106;SDS011;540;49.448;8.612;2022-07-24T09:01:52;11.15;;;5.18;;
1106;SDS011;540;49.448;8.612;2022-07-24T09:04:33;5.88;;;5.35;;
1106;SDS011;540;49.448;8.612;2022-07-24T09:07:03;6.60;;;5.93;;
1106;SDS011;540;49.448;8.612;2022-07-24T09:09:34;8.77;;;6.53;;
1106;SDS011;540;49.448;8.612;2022-07-24T09:12:07;7.68;;;6.47;;
1106;SDS011;540;49.448;8.612;2022-07-24T09:14:39;6.45;;;5.40;;
1106;SDS011;540;49.448;8.612;2022-07-24T09:17:13;6.80;;;5.38;;
1106;SDS011;540;49.448;8.612;2022-07-24T09:19:45;7.50;;;5.35;;
1106;SDS011;540;49.448;8.612;2022-07-24T09:25:04;8.65;;;7.75;;
1106;SDS011;540;49.448;8.612;2022-07-24T09:27:37;7.63;;;5.30;;
1106;SDS011;540;49.448;8.612;2022-07-24T09:30:07;7.70;;;5.75;;
1106;SDS011;540;49.448;8.612;2022-07-24T09:32:41;7.35;;;6.28;;
1106;SDS011;540;49.448;8.612;2022-07-24T09:35:09;6.80;;;6.15;;
1106;SDS011;540;49.448;8.612;2022-07-24T09:37:38;5.93;;;5.32;;
1106;SDS011;540;49.448;8.612;2022-07-24T09:40:07;6.47;;;5.55;;
1106;SDS011;540;49.448;8.612;2022-07-24T09:42:36;7.35;;;6.40;;
1106;SDS011;540;49.448;8.612;2022-07-24T09:45:07;8.23;;;7.25;;
1106;SDS011;540;49.448;8.612;2022-07-24T09:47:38;11.98;;;8.35;;
1106;SDS011;540;49.448;8.612;2022-07-24T09:50:12;7.55;;;6.75;;
1106;SDS011;540;49.448;8.612;2022-07-24T09:52:42;6.57;;;5.97;;
1106;SDS011;540;49.448;8.612;2022-07-24T09:55:20;6.50;;;5.88;;
1106;SDS011;540;49.448;8.612;2022-07-24T09:57:51;9.85;;;6.50;;
1106;SDS011;540;49.448;8.612;2022-07-24T10:00:19;8.27;;;6.00;;
1106;SDS011;540;49.448;8.612;2022-07-24T10:02:48;10.95;;;5.57;;
1106;SDS011;540;49.448;8.612;2022-07-24T10:05:19;6.90;;;5.82;;
1106;SDS011;540;49.448;8.612;2022-07-24T10:07:51;6.80;;;6.10;;
1106;SDS011;540;49.448;8.612;2022-07-24T10:10:23;8.20;;;6.75;;
1106;SDS011;540;49.448;8.612;2022-07-24T10:12:55;6.80;;;6.10;;
1106;SDS011;540;49.448;8.612;2022-07-24T10:15:24;7.75;;;5.68;;
1106;SDS011;540;49.448;8.612;2022-07-24T10:21:05;7.10;;;5.93;;
1106;SDS011;540;49.448;8.612;2022-07-24T10:23:39;8.68;;;6.03;;
1106;SDS011;540;49.448;8.612;2022-07-24T10:26:18;6.68;;;6.07;;
1106;SDS011;540;49.448;8.612;2022-07-24T10:29:02;7.07;;;6.15;;
1106;SDS011;540;49.448;8.612;2022-07-24T10:31:34;7.00;;;6.30;;
1106;SDS011;540;49.448;8.612;2022-07-24T10:34:04;6.88;;;6.25;;
1106;SDS011;540;49.448;8.612;2022-07-24T10:36:48;6.85;;;5.82;;
1106;SDS011;540;49.448;8.612;2022-07-24T10:39:25;6.60;;;5.82;;
1106;SDS011;540;49.448;8.612;2022-07-24T10:42:01;6.55;;;5.85;;
1106;SDS011;540;49.448;8.612;2022-07-24T10:44:30;8.30;;;7.15;;
1106;SDS011;540;49.448;8.612;2022-07-24T10:46:59;11.57;;;6.40;;
1106;SDS011;540;49.448;8.612;2022-07-24T10:49:40;7.68;;;6.35;;
1106;SDS011;540;49.448;8.612;2022-07-24T10:52:24;7.57;;;5.70;;
1106;SDS011;540;49.448;8.612;2022-07-24T10:57:47;8.00;;;6.07;;
1106;SDS011;540;49.448;8.612;2022-07-24T11:00:22;12.80;;;7.13;;
1106;SDS011;540;49.448;8.612;2022-07-24T11:02:54;7.32;;;6.28;;
1106;SDS011;540;49.448;8.612;2022-07-24T11:05:34;7.63;;;6.00;;
1106;SDS011;540;49.448;8.612;2022-07-24T11:11:07;7.97;;;6.05;;
1106;SDS011;540;49.448;8.612;2022-07-24T11:13:41;9.02;;;6.10;;
1106;SDS011;540;49.448;8.612;2022-07-24T11:16:21;6.82;;;6.05;;
1106;SDS011;540;49.448;8.612;2022-07-24T11:22:09;7.75;;;6.80;;
1106;SDS011;540;49.448;8.612;2022-07-24T11:25:04;8.90;;;6.28;;
1106;SDS011;540;49.448;8.612;2022-07-24T11:27:45;8.80;;;7.38;;
1106;SDS011;540;49.448;8.612;2022-07-24T11:30:18;8.20;;;5.85;;
1106;SDS011;540;49.448;8.612;2022-07-24T11:32:47;7.65;;;6.47;;
1106;SDS011;540;49.448;8.612;2022-07-24T11:35:15;7.35;;;6.53;;
1106;SDS011;540;49.448;8.612;2022-07-24T11:37:46;7.13;;;6.43;;
1106;SDS011;540;49.448;8.612;2022-07-24T11:40:17;8.60;;;6.63;;
1106;SDS011;540;49.448;8.612;2022-07-24T11:42:53;7.10;;;6.40;;
1106;SDS011;540;49.448;8.612;2022-07-24T11:45:22;6.78;;;6.13;;
1106;SDS011;540;49.448;8.612;2022-07-24T11:47:50;7.57;;;6.20;;
1106;SDS011;540;49.448;8.612;2022-07-24T11:50:21;7.18;;;6.28;;
1106;SDS011;540;49.448;8.612;2022-07-24T11:52:50;7.45;;;6.05;;
1106;SDS011;540;49.448;8.612;2022-07-24T11:55:22;6.20;;;5.55;;
1106;SDS011;540;49.448;8.612;2022-07-24T11:57:52;6.05;;;5.55;;
1106;SDS011;540;49.448;8.612;2022-07-24T12:00:41;8.13;;;5.32;;
1106;SDS011;540;49.448;8.612;2022-07-24T12:03:11;6.90;;;5.05;;
1106;SDS011;540;49.448;8.612;2022-07-24T12:05:40;6.45;;;4.85;;
1106;SDS011;540;49.448;8.612;2022-07-24T12:08:15;6.80;;;5.03;;
1106;SDS011;540;49.448;8.612;2022-07-24T12:10:46;7.22;;;5.63;;
1106;SDS011;540;49.448;8.612;2022-07-24T12:13:15;8.20;;;5.32;;
1106;SDS011;540;49.448;8.612;2022-07-24T12:15:43;5.85;;;5.18;;
1106;SDS011;540;49.448;8.612;2022-07-24T12:18:11;8.57;;;5.85;;
1106;SDS011;540;49.448;8.612;2022-07-24T12:20:40;6.53;;;5.90;;
1106;SDS011;540;49.448;8.612;2022-07-24T12:23:10;5.82;;;5.00;;
1106;SDS011;540;49.448;8.612;2022-07-24T12:25:40;4.70;;;4.30;;
1106;SDS011;540;49.448;8.612;2022-07-24T12:28:10;7.22;;;4.85;;
1106;SDS011;540;49.448;8.612;2022-07-24T12:30:40;5.32;;;4.43;;
1106;SDS011;540;49.448;8.612;2022-07-24T12:33:20;4.72;;;4.32;;
1106;SDS011;540;49.448;8.612;2022-07-24T12:35:51;4.75;;;4.32;;
1106;SDS011;540;49.448;8.612;2022-07-24T12:38:27;5.03;;;4.30;;
1106;SDS011;540;49.448;8.612;2022-07-24T12:41:04;4.50;;;3.97;;
1106;SDS011;540;49.448;8.612;2022-07-24T12:43:44;6.05;;;4.50;;
1106;SDS011;540;49.448;8.612;2022-07-24T12:46:14;7.32;;;4.55;;
1106;SDS011;540;49.448;8.612;2022-07-24T12:48:55;4.43;;;4.03;;
1106;SDS011;540;49.448;8.612;2022-07-24T12:51:24;5.40;;;3.92;;
1106;SDS011;540;49.448;8.612;2022-07-24T12:53:53;4.45;;;4.05;;
1106;SDS011;540;49.448;8.612;2022-07-24T12:56:22;4.25;;;3.85;;
1106;SDS011;540;49.448;8.612;2022-07-24T12:58:52;4.50;;;4.10;;
1106;SDS011;540;49.448;8.612;2022-07-24T13:03:54;5.63;;;4.75;;
1106;SDS011;540;49.448;8.612;2022-07-24T13:06:33;4.28;;;3.92;;
1106;SDS011;540;49.448;8.612;2022-07-24T13:09:03;4.75;;;4.20;;
1106;SDS011;540;49.448;8.612;2022-07-24T13:11:31;6.95;;;4.32;;
1106;SDS011;540;49.448;8.612;2022-07-24T13:14:03;4.50;;;3.92;;
1106;SDS011;540;49.448;8.612;2022-07-24T13:16:34;5.32;;;4.03;;
1106;SDS011;540;49.448;8.612;2022-07-24T13:19:03;4.55;;;4.15;;
1106;SDS011;540;49.448;8.612;2022-07-24T13:21:32;4.03;;;3.63;;
1106;SDS011;540;49.448;8.612;2022-07-24T13:24:00;5.57;;;4.05;;
1106;SDS011;540;49.448;8.612;2022-07-24T13:26:29;4.78;;;4.38;;
1106;SDS011;540;49.448;8.612;2022-07-24T13:28:57;4.65;;;4.25;;
1106;SDS011;540;49.448;8.612;2022-07-24T13:31:26;5.03;;;4.07;;
1106;SDS011;540;49.448;8.612;2022-07-24T13:33:54;4.47;;;4.07;;
1106;SDS011;540;49.448;8.612;2022-07-24T13:36:22;5.55;;;3.63;;
1106;SDS011;540;49.448;8.612;2022-07-24T13:38:52;4.00;;;3.70;;
1106;SDS011;540;49.448;8.612;2022-07-24T13:41:20;4.25;;;3.78;;
1106;SDS011;540;49.448;8.612;2022-07-24T13:43:48;5.63;;;4.00;;
1106;SDS011;540;49.448;8.612;2022-07-24T13:46:17;4.50;;;4.00;;
1106;SDS011;540;49.448;8.612;2022-07-24T13:48:48;4.57;;;3.60;;
1106;SDS011;540;49.448;8.612;2022-07-24T13:51:23;4.28;;;3.70;;
1106;SDS011;540;49.448;8.612;2022-07-24T13:53:51;5.60;;;3.80;;
1106;SDS011;540;49.448;8.612;2022-07-24T13:56:19;4.10;;;3.70;;
1106;SDS011;540;49.448;8.612;2022-07-24T13:58:49;4.55;;;3.50;;
1106;SDS011;540;49.448;8.612;2022-07-24T14:01:17;7.00;;;4.20;;
1106;SDS011;540;49.448;8.612;2022-07-24T14:04:01;4.15;;;3.58;;
1106;SDS011;540;49.448;8.612;2022-07-24T14:06:50;4.72;;;4.18;;
1106;SDS011;540;49.448;8.612;2022-07-24T14:09:18;5.00;;;4.35;;
1106;SDS011;540;49.448;8.612;2022-07-24T14:11:47;5.15;;;4.13;;
1106;SDS011;540;49.448;8.612;2022-07-24T14:14:15;4.93;;;4.05;;
1106;SDS011;540;49.448;8.612;2022-07-24T14:16:43;4.32;;;3.70;;
1106;SDS011;540;49.448;8.612;2022-07-24T14:19:13;4.20;;;3.53;;
1106;SDS011;540;49.448;8.612;2022-07-24T14:21:40;4.38;;;3.95;;
1106;SDS011;540;49.448;8.612;2022-07-24T14:24:12;4.47;;;3.90;;
1106;SDS011;540;49.448;8.612;2022-07-24T14:26:41;5.47;;;4.05;;
1106;SDS011;540;49.448;8.612;2022-07-24T14:29:10;4.75;;;4.30;;
1106;SDS011;540;49.448;8.612;2022-07-24T14:31:38;4.18;;;3.75;;
1106;SDS011;540;49.448;8.612;2022-07-24T14:34:11;4.45;;;4.00;;
1106;SDS011;540;49.448;8.612;2022-07-24T14:37:09;4.35;;;3.95;;
1106;SDS011;540;49.448;8.612;2022-07-24T14:39:43;5.07;;;4.00;;
1106;SDS011;540;49.448;8.612;2022-07-24T14:42:13;4.55;;;3.30;;
1106;SDS011;540;49.448;8.612;2022-07-24T14:44:41;5.97;;;4.28;;
1106;SDS011;540;49.448;8.612;2022-07-24T14:47:09;5.20;;;4.18;;
1106;SDS011;540;49.448;8.612;2022-07-24T14:49:38;5.03;;;3.90;;
1106;SDS011;540;49.448;8.612;2022-07-24T14:52:06;4.53;;;4.10;;
1106;SDS011;540;49.448;8.612;2022-07-24T14:54:34;8.25;;;4.53;;
1106;SDS011;540;49.448;8.612;2022-07-24T14:57:03;4.93;;;3.83;;
1106;SDS011;540;49.448;8.612;2022-07-24T14:59:33;5.00;;;4.15;;
1106;SDS011;540;49.448;8.612;2022-07-24T15:02:01;5.60;;;4.50;;
1106;SDS011;540;49.448;8.612;2022-07-24T15:04:29;4.38;;;3.80;;
1106;SDS011;540;49.448;8.612;2022-07-24T15:06:58;4.18;;;3.88;;
1106;SDS011;540;49.448;8.612;2022-07-24T15:09:26;4.72;;;4.20;;
1106;SDS011;540;49.448;8.612;2022-07-24T15:11:54;5.80;;;5.15;;
1106;SDS011;540;49.448;8.612;2022-07-24T15:14:22;4.95;;;4.00;;
1106;SDS011;540;49.448;8.612;2022-07-24T15:16:50;4.07;;;3.65;;
1106;SDS011;540;49.448;8.612;2022-07-24T15:19:18;4.53;;;4.07;;
1106;SDS011;540;49.448;8.612;2022-07-24T15:21:46;4.60;;;4.18;;
1106;SDS011;540;49.448;8.612;2022-07-24T15:24:15;6.15;;;4.10;;
1106;SDS011;540;49.448;8.612;2022-07-24T15:26:47;5.40;;;4.03;;
1106;SDS011;540;49.448;8.612;2022-07-24T15:29:16;6.15;;;3.90;;
1106;SDS011;540;49.448;8.612;2022-07-24T15:31:43;4.60;;;4.00;;
1106;SDS011;540;49.448;8.612;2022-07-24T15:34:14;6.57;;;5.97;;
1106;SDS011;540;49.448;8.612;2022-07-24T15:36:43;4.30;;;3.90;;
1106;SDS011;540;49.448;8.612;2022-07-24T15:39:11;4.88;;;4.38;;
1106;SDS011;540;49.448;8.612;2022-07-24T15:41:40;5.68;;;4.35;;
1106;SDS011;540;49.448;8.612;2022-07-24T15:44:08;4.68;;;3.85;;
1106;SDS011;540;49.448;8.612;2022-07-24T15:46:36;5.05;;;4.15;;
1106;SDS011;540;49.448;8.612;2022-07-24T15:49:04;3.88;;;3.55;;
1106;SDS011;540;49.448;8.612;2022-07-24T15:51:35;3.97;;;3.67;;
1106;SDS011;540;49.448;8.612;2022-07-24T15:54:03;4.65;;;4.25;;
1106;SDS011;540;49.448;8.612;2022-07-24T15:56:32;4.97;;;4.07;;
1106;SDS011;540;49.448;8.612;2022-07-24T15:59:02;3.85;;;3.42;;
1106;SDS011;540;49.448;8.612;2022-07-24T16:01:30;5.68;;;4.13;;
1106;SDS011;540;49.448;8.612;2022-07-24T16:04:14;5.03;;;4.53;;